Time;durP1;ratioP1;P1;durP2;ratioP2;P2;SDS_P1;SDS_P2;PMS_P1;PMS_P2;Temp;Humidity;BMP_temperature;BMP_pressure;BME280_temperature;BME280_humidity;BME280_pressure;Samples;Min_cycle;Max_cycle;Signal;HPM_P1;HPM_P2
2023/07/29 11:05:52;;;;;;;1.50;1.40;;;;;;;20.78;100.00;100558.53;5089778;27;20409;-79
2023/07/29 11:08:20;;;;;;;1.50;1.40;;;;;;;20.73;100.00;100559.44;5059701;28;20028;-79
2023/07/29 11:11:04;;;;;;;4.03;1.40;;;;;;;20.69;100.00;100559.19;5054802;28;20115;-74
2023/07/29 11:13:31;;;;;;;1.42;1.30;;;;;;;20.62;100.00;100560.66;5069906;28;20020;-74
2023/07/29 11:15:58;;;;;;;1.65;1.50;;;;;;;20.58;100.00;100554.97;5062951;28;20051;-74
2023/07/29 11:18:34;;;;;;;3.08;1.30;;;;;;;20.56;100.00;100559.13;5048503;28;20480;-74
2023/07/29 11:21:00;;;;;;;2.80;1.40;;;;;;;20.53;100.00;100555.03;5049772;28;20045;-74
2023/07/29 11:23:33;;;;;;;4.53;1.60;;;;;;;20.56;100.00;100559.91;5051157;28;20041;-74
2023/07/29 11:25:59;;;;;;;1.85;1.50;;;;;;;20.67;100.00;100561.44;5049849;28;20029;-74
2023/07/29 11:28:26;;;;;;;1.33;1.10;;;;;;;20.79;100.00;100565.63;5049457;28;20033;-73
2023/07/29 11:30:52;;;;;;;3.40;1.45;;;;;;;20.93;100.00;100557.44;5049457;28;20075;-73
2023/07/29 11:33:20;;;;;;;5.22;1.70;;;;;;;21.05;100.00;100555.81;5047849;28;20033;-73
2023/07/29 11:35:45;;;;;;;2.45;1.35;;;;;;;21.19;100.00;100549.53;5053380;28;20082;-78
2023/07/29 11:38:15;;;;;;;2.47;1.20;;;;;;;21.29;100.00;100557.59;5048450;28;20388;-78
2023/07/29 11:40:40;;;;;;;1.88;1.30;;;;;;;21.36;100.00;100548.94;5048651;28;20060;-73
2023/07/29 11:43:06;;;;;;;2.23;1.67;;;;;;;21.53;100.00;100549.19;5049772;28;20029;-74
2023/07/29 11:45:31;;;;;;;2.40;1.38;;;;;;;21.90;100.00;100563.00;5044792;28;20026;-74
2023/07/29 11:47:56;;;;;;;2.33;1.25;;;;;;;22.06;100.00;100550.53;5048322;28;20499;-75
2023/07/29 11:50:22;;;;;;;1.88;1.33;;;;;;;22.04;87.07;100550.03;5048909;28;20029;-78
2023/07/29 11:52:48;;;;;;;3.58;1.30;;;;;;;22.01;86.99;100547.91;5047849;28;20068;-71
2023/07/29 11:55:15;;;;;;;2.03;1.55;;;;;;;22.03;91.58;100542.88;5048459;28;20029;-78
2023/07/29 11:57:41;;;;;;;1.58;1.13;;;;;;;22.07;91.22;100535.63;5049600;28;20041;-73
2023/07/29 12:00:09;;;;;;;2.58;1.40;;;;;;;22.02;96.35;100532.19;5047389;28;20034;-71
2023/07/29 12:02:45;;;;;;;2.92;1.35;;;;;;;21.90;100.00;100536.25;5048567;28;20646;-73
2023/07/29 12:05:13;;;;;;;4.10;1.60;;;;;;;21.80;99.25;100557.72;5048087;28;20129;-73
2023/07/29 12:07:39;;;;;;;3.85;1.67;;;;;;;21.66;100.00;100552.22;5034410;28;20034;-73
2023/07/29 12:10:05;;;;;;;1.70;1.60;;;;;;;21.48;99.61;100562.19;5045837;28;20067;-74
2023/07/29 12:12:30;;;;;;;2.90;1.60;;;;;;;21.31;100.00;100566.34;5048117;28;20037;-74
2023/07/29 12:14:56;;;;;;;3.30;1.90;;;;;;;21.16;100.00;100577.66;5046436;28;20090;-73
2023/07/29 12:17:21;;;;;;;3.05;1.80;;;;;;;21.00;100.00;100579.84;5035226;28;20126;-74
2023/07/29 12:19:47;;;;;;;2.63;1.80;;;;;;;20.86;100.00;100566.06;5034446;28;20026;-75
2023/07/29 12:22:19;;;;;;;3.42;1.88;;;;;;;20.71;100.00;100578.97;5034457;28;20033;-76
2023/07/29 12:24:44;;;;;;;2.58;2.00;;;;;;;20.54;100.00;100584.97;5035476;28;20453;-74
2023/07/29 12:27:14;;;;;;;5.68;2.08;;;;;;;20.42;100.00;100601.09;5035581;28;20045;-79
2023/07/29 12:29:43;;;;;;;2.22;2.00;;;;;;;20.29;100.00;100602.66;5033808;28;20056;-76
2023/07/29 12:32:09;;;;;;;2.75;2.22;;;;;;;20.16;100.00;100606.16;5035035;28;20102;-73
2023/07/29 12:34:37;;;;;;;2.50;2.30;;;;;;;19.99;100.00;100607.47;5021044;28;20053;-73
2023/07/29 12:37:04;;;;;;;5.72;2.25;;;;;;;19.90;100.00;100613.88;5034138;28;20629;-75
2023/07/29 12:39:31;;;;;;;2.97;2.50;;;;;;;19.77;100.00;100599.75;5042033;28;20041;-75
2023/07/29 12:41:58;;;;;;;3.83;2.38;;;;;;;19.65;100.00;100594.66;5017017;28;20033;-74
2023/07/29 12:44:25;;;;;;;3.83;2.60;;;;;;;19.61;100.00;100590.88;5027923;28;20464;-82
2023/07/29 12:46:50;;;;;;;4.82;2.60;;;;;;;19.63;100.00;100599.63;5033252;28;21998;-75
2023/07/29 12:49:16;;;;;;;6.53;2.90;;;;;;;19.65;100.00;100586.41;5014463;28;20037;-75
2023/07/29 12:51:42;;;;;;;4.40;2.67;;;;;;;19.71;100.00;100597.34;5031596;28;20047;-74
2023/07/29 12:54:07;;;;;;;6.70;3.58;;;;;;;19.68;100.00;100596.00;5031478;28;20083;-77
2023/07/29 12:56:33;;;;;;;3.20;2.90;;;;;;;19.62;100.00;100608.16;5034503;28;20065;-76
2023/07/29 12:59:00;;;;;;;3.55;2.60;;;;;;;19.55;100.00;100597.53;5033444;28;20026;-77
2023/07/29 13:01:26;;;;;;;6.15;3.17;;;;;;;19.68;100.00;100606.16;5038049;28;20147;-77
2023/07/29 13:03:51;;;;;;;3.05;2.75;;;;;;;19.66;100.00;100598.22;5036288;28;20440;-78
2023/07/29 13:06:17;;;;;;;1.63;1.38;;;;;;;19.57;100.00;100605.47;5033288;28;20053;-77
2023/07/29 13:08:43;;;;;;;2.40;1.42;;;;;;;19.63;100.00;100599.63;5033063;28;20032;-75
2023/07/29 13:11:08;;;;;;;1.58;1.48;;;;;;;19.94;100.00;100599.28;5034485;28;20423;-76
2023/07/29 13:13:34;;;;;;;3.33;2.10;;;;;;;20.24;100.00;100607.41;5032959;28;20021;-76
2023/07/29 13:15:59;;;;;;;3.00;1.70;;;;;;;20.48;100.00;100597.16;5034021;28;20083;-76
2023/07/29 13:18:25;;;;;;;3.65;2.00;;;;;;;20.70;100.00;100593.81;5025187;28;20034;-78
2023/07/29 13:20:50;;;;;;;2.33;1.90;;;;;;;21.07;100.00;100602.28;5013014;28;20025;-77
2023/07/29 13:23:19;;;;;;;3.22;1.80;;;;;;;20.93;100.00;100596.75;5014546;28;20037;-77
2023/07/29 13:25:44;;;;;;;2.97;1.70;;;;;;;20.77;100.00;100604.44;5013356;28;20475;-76
2023/07/29 13:28:10;;;;;;;2.38;1.65;;;;;;;20.74;100.00;100602.28;5029710;28;20033;-77
2023/07/29 13:30:35;;;;;;;2.70;1.80;;;;;;;20.84;100.00;100604.06;5030988;28;20037;-77
2023/07/29 13:33:01;;;;;;;1.55;1.45;;;;;;;20.99;100.00;100590.03;5021252;28;20030;-76
2023/07/29 13:35:27;;;;;;;1.95;1.60;;;;;;;21.10;100.00;100579.69;5012753;28;20041;-76
2023/07/29 13:37:52;;;;;;;2.35;1.77;;;;;;;21.41;100.00;100585.44;5015433;28;20041;-76
2023/07/29 13:40:17;;;;;;;1.77;1.67;;;;;;;21.53;100.00;100584.13;5027882;28;20026;-76
2023/07/29 13:42:43;;;;;;;1.50;1.40;;;;;;;21.82;100.00;100580.28;5014014;28;20041;-76
2023/07/29 13:45:08;;;;;;;1.48;1.38;;;;;;;21.89;100.00;100583.41;5030879;28;20512;-76
2023/07/29 13:47:34;;;;;;;1.80;1.45;;;;;;;21.91;100.00;100590.25;5033484;28;20033;-76
2023/07/29 13:50:00;;;;;;;1.58;1.48;;;;;;;21.85;100.00;100594.25;5033451;28;20029;-76
2023/07/29 13:52:25;;;;;;;1.65;1.40;;;;;;;21.93;100.00;100587.19;5019164;28;20081;-76
2023/07/29 13:54:51;;;;;;;0.90;0.90;;;;;;;22.17;100.00;100577.88;5033444;28;20099;-75
2023/07/29 13:57:16;;;;;;;1.90;1.08;;;;;;;22.52;100.00;100583.69;5032704;28;20113;-74
2023/07/29 13:59:41;;;;;;;1.40;1.30;;;;;;;22.56;100.00;100588.28;5028388;28;20069;-74
2023/07/29 14:02:07;;;;;;;1.17;1.08;;;;;;;22.59;100.00;100587.66;5042608;28;20488;-74
2023/07/29 14:04:33;;;;;;;1.08;1.05;;;;;;;22.79;100.00;100591.03;5033841;28;20431;-74
2023/07/29 14:06:59;;;;;;;1.20;1.10;;;;;;;22.89;100.00;100578.91;5033121;28;20029;-74
2023/07/29 14:09:25;;;;;;;2.30;1.02;;;;;;;23.21;100.00;100571.53;5032354;28;20037;-75
2023/07/29 14:11:51;;;;;;;0.90;0.90;;;;;;;23.22;100.00;100562.09;5033306;28;20021;-76
2023/07/29 14:14:16;;;;;;;0.82;0.70;;;;;;;23.17;95.67;100563.03;5035290;28;20100;-75
2023/07/29 14:16:41;;;;;;;1.13;0.80;;;;;;;23.28;94.08;100564.41;5031176;28;20030;-75
2023/07/29 14:19:07;;;;;;;1.00;1.00;;;;;;;23.52;100.00;100560.44;5032741;28;20041;-75
2023/07/29 14:21:32;;;;;;;1.23;1.00;;;;;;;23.40;89.92;100569.34;5025812;28;20441;-76
2023/07/29 14:23:57;;;;;;;0.80;0.80;;;;;;;23.15;88.25;100579.13;5032992;28;20103;-75
2023/07/29 14:26:23;;;;;;;1.25;1.00;;;;;;;23.30;100.00;100569.63;5030651;28;20040;-78
2023/07/29 14:28:49;;;;;;;0.85;0.85;;;;;;;23.54;100.00;100572.78;5029237;28;20124;-74
2023/07/29 14:31:16;;;;;;;1.52;0.80;;;;;;;23.64;81.13;100573.63;5032828;28;20465;-74
2023/07/29 14:33:42;;;;;;;1.60;0.88;;;;;;;23.76;86.51;100571.06;5031704;28;20496;-76
2023/07/29 14:36:07;;;;;;;1.48;0.95;;;;;;;23.80;82.58;100574.81;5023151;28;20064;-75
2023/07/29 14:38:32;;;;;;;0.98;0.88;;;;;;;23.68;77.59;100569.09;5031567;28;20057;-77
2023/07/29 14:41:00;;;;;;;0.98;0.70;;;;;;;23.98;90.93;100563.84;5027405;28;20032;-76
2023/07/29 14:43:25;;;;;;;0.80;0.80;;;;;;;24.30;84.13;100561.75;5029763;28;20033;-76
2023/07/29 14:45:50;;;;;;;1.08;0.98;;;;;;;24.28;74.46;100573.13;5032688;28;20373;-76
2023/07/29 14:48:16;;;;;;;1.00;0.90;;;;;;;24.15;71.47;100566.59;5032869;28;20029;-75
2023/07/29 14:50:43;;;;;;;0.93;0.70;;;;;;;24.20;70.57;100573.94;5021475;28;20439;-74
2023/07/29 14:53:09;;;;;;;1.15;1.05;;;;;;;24.14;71.11;100569.69;5024422;28;20092;-77
2023/07/29 14:55:34;;;;;;;0.82;0.82;;;;;;;24.00;71.16;100572.63;5012374;28;20033;-76
2023/07/29 14:57:59;;;;;;;3.55;0.98;;;;;;;24.04;69.01;100570.84;5013057;28;20057;-76
2023/07/29 15:00:24;;;;;;;1.00;1.00;;;;;;;23.76;68.00;100571.06;5021738;28;20034;-75
2023/07/29 15:02:50;;;;;;;0.85;0.85;;;;;;;23.57;68.63;100562.22;5044072;28;20052;-73
2023/07/29 15:05:15;;;;;;;0.85;0.70;;;;;;;23.52;70.50;100555.72;5032637;28;20056;-75
2023/07/29 15:07:40;;;;;;;1.83;0.90;;;;;;;23.56;67.69;100555.09;5032351;28;20033;-75
2023/07/29 15:10:06;;;;;;;2.35;0.90;;;;;;;23.60;70.88;100542.28;5027562;28;20460;-74
2023/07/29 15:12:32;;;;;;;2.20;1.00;;;;;;;23.69;69.80;100535.63;5032288;28;20579;-76
2023/07/29 15:14:57;;;;;;;1.23;0.90;;;;;;;24.03;73.03;100550.66;5030057;28;20431;-74
2023/07/29 15:17:22;;;;;;;2.33;1.00;;;;;;;23.91;66.20;100552.44;5032110;28;20040;-75
2023/07/29 15:19:49;;;;;;;1.83;1.05;;;;;;;23.69;68.83;100559.69;5031715;28;20027;-74
2023/07/29 15:22:15;;;;;;;1.23;1.00;;;;;;;23.38;66.50;100549.50;5032555;28;20036;-75
2023/07/29 15:24:43;;;;;;;1.83;0.95;;;;;;;23.17;69.62;100544.56;5029479;28;20034;-74
2023/07/29 15:27:09;;;;;;;1.48;0.70;;;;;;;23.03;72.39;100546.56;5032340;28;20033;-76
2023/07/29 15:29:34;;;;;;;1.00;0.90;;;;;;;22.95;75.45;100547.34;5030135;28;20043;-76
2023/07/29 15:31:59;;;;;;;2.13;1.10;;;;;;;22.89;81.42;100543.06;5033553;28;20475;-74
2023/07/29 15:34:25;;;;;;;2.63;1.23;;;;;;;22.81;79.63;100542.72;5032663;28;20033;-77
2023/07/29 15:36:51;;;;;;;1.38;0.90;;;;;;;22.67;87.02;100547.47;5020493;28;20030;-76
2023/07/29 15:39:18;;;;;;;1.10;1.00;;;;;;;22.61;99.46;100549.53;5012692;28;20065;-78
2023/07/29 15:41:44;;;;;;;1.60;0.80;;;;;;;22.55;95.34;100550.78;5031105;28;20041;-79
2023/07/29 15:44:09;;;;;;;1.83;1.27;;;;;;;22.44;100.00;100550.22;5031044;28;20060;-77
2023/07/29 15:46:34;;;;;;;1.20;0.80;;;;;;;22.37;97.93;100549.84;5026898;28;20039;-75
2023/07/29 15:49:00;;;;;;;1.85;1.08;;;;;;;22.33;100.00;100543.34;5012560;28;20026;-77
2023/07/29 15:51:26;;;;;;;1.27;1.08;;;;;;;22.57;98.26;100539.44;5020453;28;20033;-76
2023/07/29 15:53:52;;;;;;;1.10;1.00;;;;;;;22.72;91.81;100544.59;5026072;28;20065;-76
2023/07/29 15:56:17;;;;;;;2.08;1.30;;;;;;;22.70;97.56;100549.59;5030479;28;20056;-75
2023/07/29 15:58:42;;;;;;;2.70;1.08;;;;;;;22.82;100.00;100558.13;5023109;28;20033;-76
2023/07/29 16:01:07;;;;;;;2.63;1.23;;;;;;;23.51;89.06;100558.81;5032216;28;20048;-76
2023/07/29 16:03:33;;;;;;;1.48;1.38;;;;;;;24.04;81.19;100552.28;5037786;28;20029;-76
2023/07/29 16:05:59;;;;;;;0.90;0.90;;;;;;;24.54;74.99;100545.47;5035676;28;20021;-77
2023/07/29 16:08:24;;;;;;;2.50;1.67;;;;;;;24.89;69.31;100553.72;5017441;28;20426;-76
2023/07/29 16:10:50;;;;;;;1.40;1.25;;;;;;;25.13;68.17;100538.50;5032988;28;20029;-77
2023/07/29 16:13:17;;;;;;;1.98;1.50;;;;;;;25.05;69.43;100547.69;5019955;28;20181;-77
